Time;durP1;ratioP1;P1;durP2;ratioP2;P2;SDS_P1;SDS_P2;PMS_P1;PMS_P2;Temp;Humidity;BMP_temperature;BMP_pressure;BME280_temperature;BME280_humidity;BME280_pressure;Samples;Min_cycle;Max_cycle;Signal;HPM_P1;HPM_P2
2023/09/22 00:01:01;;;;;;;0.40;0.40;;;;;;;15.54;100.00;95502.50;5042583;28;20212;-58
2023/09/22 00:03:28;;;;;;;2.35;0.50;;;;;;;15.49;100.00;95507.59;5042310;28;20215;-57
2023/09/22 00:05:55;;;;;;;0.40;0.40;;;;;;;15.49;100.00;95512.94;5043007;28;20208;-58
2023/09/22 00:08:21;;;;;;;0.68;0.50;;;;;;;15.51;100.00;95524.22;5042705;28;20203;-58
2023/09/22 00:10:48;;;;;;;0.52;0.52;;;;;;;15.53;100.00;95511.50;5042402;28;20211;-58
2023/09/22 00:13:16;;;;;;;0.50;0.50;;;;;;;15.54;100.00;95510.50;5042344;28;20757;-58
2023/09/22 00:15:43;;;;;;;1.42;0.65;;;;;;;15.50;100.00;95509.25;5043647;28;20719;-57
2023/09/22 00:18:10;;;;;;;0.60;0.60;;;;;;;15.51;100.00;95502.09;5042079;28;20636;-58
2023/09/22 00:20:37;;;;;;;0.45;0.45;;;;;;;15.47;100.00;95514.94;5042019;28;20195;-58
2023/09/22 00:23:03;;;;;;;0.40;0.40;;;;;;;15.47;100.00;95506.97;5043870;28;20209;-58
2023/09/22 00:25:31;;;;;;;1.42;0.40;;;;;;;15.47;100.00;95512.28;5043515;28;20203;-57
2023/09/22 00:27:57;;;;;;;0.70;0.70;;;;;;;15.47;100.00;95514.94;5044473;28;20250;-57
2023/09/22 00:30:26;;;;;;;1.02;0.70;;;;;;;15.44;100.00;95510.81;5043915;28;20207;-57
2023/09/22 00:32:52;;;;;;;0.50;0.50;;;;;;;15.46;100.00;95505.31;5043224;28;20200;-58
2023/09/22 00:35:19;;;;;;;0.47;0.47;;;;;;;15.40;100.00;95519.44;5042858;28;20207;-57
2023/09/22 00:37:45;;;;;;;1.65;0.80;;;;;;;15.35;100.00;95521.88;5043526;28;20227;-57
2023/09/22 00:40:12;;;;;;;1.38;0.73;;;;;;;15.29;100.00;95523.50;5042141;28;20223;-56
2023/09/22 00:42:39;;;;;;;0.98;0.65;;;;;;;15.34;100.00;95537.03;5042141;28;20611;-57
2023/09/22 00:45:06;;;;;;;1.63;0.88;;;;;;;15.30;100.00;95534.97;5043184;28;20208;-58
2023/09/22 00:47:34;;;;;;;1.55;0.93;;;;;;;15.28;100.00;95534.34;5042443;28;20203;-58
2023/09/22 00:50:01;;;;;;;1.00;0.60;;;;;;;15.30;100.00;95540.31;5041939;28;20199;-58
2023/09/22 00:52:29;;;;;;;0.68;0.68;;;;;;;15.28;100.00;95539.66;5042664;28;20199;-58
2023/09/22 00:54:57;;;;;;;1.30;0.85;;;;;;;15.25;100.00;95538.22;5042575;28;20669;-58
2023/09/22 00:57:23;;;;;;;1.65;1.00;;;;;;;15.21;100.00;95531.66;5043092;28;20211;-58
2023/09/22 00:59:51;;;;;;;1.08;0.82;;;;;;;15.18;100.00;95524.06;5042254;28;20219;-56
2023/09/22 01:02:17;;;;;;;0.75;0.75;;;;;;;15.15;100.00;95523.63;5042593;28;20212;-57
2023/09/22 01:04:45;;;;;;;1.08;0.80;;;;;;;15.12;100.00;95516.88;5041909;28;20211;-58
2023/09/22 01:07:11;;;;;;;0.77;0.70;;;;;;;15.17;100.00;95509.09;5042551;28;20223;-57
2023/09/22 01:09:38;;;;;;;1.45;0.85;;;;;;;15.10;100.00;95513.56;5042938;28;20204;-56
2023/09/22 01:12:05;;;;;;;1.60;0.70;;;;;;;15.06;100.00;95511.50;5042090;28;20235;-57
2023/09/22 01:14:31;;;;;;;1.58;0.80;;;;;;;15.00;100.00;95506.97;5041780;28;20211;-58
2023/09/22 01:16:58;;;;;;;1.27;0.70;;;;;;;14.98;100.00;95509.03;5042210;28;20230;-57
2023/09/22 01:19:25;;;;;;;1.10;0.80;;;;;;;14.98;100.00;95509.03;5041665;28;20231;-57
2023/09/22 01:21:53;;;;;;;0.73;0.60;;;;;;;15.02;100.00;95504.94;5042067;28;20215;-57
2023/09/22 01:24:20;;;;;;;1.85;0.80;;;;;;;15.04;100.00;95502.91;5041100;28;20638;-58
2023/09/22 01:26:48;;;;;;;0.75;0.70;;;;;;;15.02;100.00;95510.28;5043335;28;20235;-58
2023/09/22 01:29:14;;;;;;;1.13;0.68;;;;;;;14.99;100.00;95502.66;5045486;28;20250;-58
2023/09/22 01:31:42;;;;;;;0.98;0.88;;;;;;;14.95;100.00;95504.91;5045858;28;20208;-57
2023/09/22 01:34:10;;;;;;;1.90;0.88;;;;;;;14.94;100.00;95516.59;5048327;28;20207;-58
2023/09/22 01:36:37;;;;;;;2.60;0.80;;;;;;;14.89;100.00;95532.31;5047741;28;20211;-58
2023/09/22 01:39:09;;;;;;;2.38;0.60;;;;;;;14.84;100.00;95524.91;5045927;28;20560;-58
2023/09/22 01:41:36;;;;;;;0.50;0.50;;;;;;;14.87;100.00;95519.22;5045859;28;20208;-57
2023/09/22 01:44:02;;;;;;;1.90;0.93;;;;;;;14.80;100.00;95520.19;5046660;28;20261;-60
2023/09/22 01:46:29;;;;;;;0.95;0.88;;;;;;;14.85;100.00;95521.22;5046949;28;20214;-57
2023/09/22 01:48:55;;;;;;;1.45;0.88;;;;;;;14.75;100.00;95520.78;5045368;28;20909;-57
2023/09/22 01:51:23;;;;;;;0.98;0.77;;;;;;;14.80;100.00;95523.69;5046045;28;20567;-57
2023/09/22 01:53:50;;;;;;;0.70;0.70;;;;;;;14.81;100.00;95524.47;5045584;28;21436;-57
2023/09/22 01:56:17;;;;;;;1.98;0.85;;;;;;;14.78;100.00;95531.03;5044590;28;20215;-57
2023/09/22 01:58:44;;;;;;;0.83;0.67;;;;;;;14.77;100.00;95534.69;5045605;28;20227;-57
2023/09/22 02:01:11;;;;;;;1.90;0.90;;;;;;;14.76;100.00;95527.75;5045464;28;20208;-57
2023/09/22 02:03:37;;;;;;;1.00;0.95;;;;;;;14.71;100.00;95519.53;5044009;28;20636;-57
2023/09/22 02:06:05;;;;;;;0.90;0.90;;;;;;;14.73;100.00;95524.66;5044669;28;20236;-57
2023/09/22 02:08:31;;;;;;;2.08;0.80;;;;;;;14.76;100.00;95532.25;5044972;28;20203;-57
2023/09/22 02:10:57;;;;;;;0.85;0.85;;;;;;;14.77;100.00;95536.56;5044762;28;20219;-57
2023/09/22 02:13:25;;;;;;;0.70;0.70;;;;;;;14.78;100.00;95543.50;5043763;28;20212;-58
2023/09/22 02:15:52;;;;;;;2.80;0.90;;;;;;;14.70;100.00;95544.47;5044997;28;20261;-58
2023/09/22 02:18:19;;;;;;;1.17;0.82;;;;;;;14.73;100.00;95546.78;5043516;28;20235;-58
2023/09/22 02:20:45;;;;;;;0.80;0.75;;;;;;;14.66;100.00;95556.56;5044355;28;20195;-58
2023/09/22 02:23:11;;;;;;;1.02;0.90;;;;;;;14.73;100.00;95552.09;5045591;28;20212;-57
2023/09/22 02:25:38;;;;;;;4.50;1.27;;;;;;;14.73;100.00;95544.09;5050608;28;20200;-57
2023/09/22 02:28:05;;;;;;;2.20;0.93;;;;;;;14.69;100.00;95558.81;5055022;28;20231;-57
2023/09/22 02:30:35;;;;;;;3.50;0.75;;;;;;;14.68;100.00;95543.84;5050400;28;20543;-58
2023/09/22 02:33:01;;;;;;;1.98;1.02;;;;;;;14.68;100.00;95530.56;5049554;28;20218;-57
2023/09/22 02:35:28;;;;;;;1.40;0.82;;;;;;;14.65;100.00;95533.63;5044078;28;20199;-57
2023/09/22 02:37:54;;;;;;;1.35;0.88;;;;;;;14.62;100.00;95544.66;5043342;28;20212;-58
2023/09/22 02:40:21;;;;;;;2.53;0.93;;;;;;;14.64;100.00;95555.91;5043430;28;20232;-58
2023/09/22 02:42:48;;;;;;;1.15;1.13;;;;;;;14.59;100.00;95553.03;5043932;28;20211;-58
2023/09/22 02:45:14;;;;;;;1.50;0.85;;;;;;;14.59;100.00;95546.88;5043534;28;20218;-58
2023/09/22 02:47:42;;;;;;;1.33;1.10;;;;;;;14.55;100.00;95522.50;5043627;28;20215;-57
2023/09/22 02:50:12;;;;;;;0.85;0.85;;;;;;;14.57;100.00;95522.28;5044163;28;20199;-58
2023/09/22 02:52:39;;;;;;;0.90;0.90;;;;;;;14.57;100.00;95519.63;5043960;28;20297;-58
2023/09/22 02:55:08;;;;;;;0.95;0.60;;;;;;;14.56;100.00;95542.75;5043533;28;20207;-57
2023/09/22 02:57:35;;;;;;;1.13;1.10;;;;;;;14.59;100.00;95557.50;5043618;28;20289;-58
2023/09/22 03:00:11;;;;;;;1.02;0.98;;;;;;;14.55;100.00;95557.09;5044123;28;20266;-57
2023/09/22 03:02:38;;;;;;;2.17;1.17;;;;;;;14.51;100.00;95561.13;5043784;28;20208;-58
2023/09/22 03:05:08;;;;;;;2.20;2.00;;;;;;;14.52;100.00;95565.44;5043447;28;20211;-59
2023/09/22 03:07:34;;;;;;;2.17;2.05;;;;;;;14.55;100.00;95556.25;5043812;28;20199;-57
2023/09/22 03:10:01;;;;;;;1.70;1.60;;;;;;;14.53;100.00;95548.47;5043762;28;20204;-58
2023/09/22 03:12:27;;;;;;;1.63;1.20;;;;;;;14.54;100.00;95550.09;5043166;28;20207;-58
2023/09/22 03:14:54;;;;;;;1.30;0.85;;;;;;;14.50;100.00;95542.69;5044304;28;20200;-57
2023/09/22 03:17:20;;;;;;;1.08;0.80;;;;;;;14.50;100.00;95548.84;5043201;28;20203;-57
2023/09/22 03:19:47;;;;;;;1.35;1.25;;;;;;;14.44;100.00;95557.59;5043338;28;20223;-58
2023/09/22 03:22:15;;;;;;;1.00;1.00;;;;;;;14.47;100.00;95554.56;5043499;28;20199;-58
2023/09/22 03:24:41;;;;;;;2.73;0.93;;;;;;;14.47;100.00;95554.56;5043522;28;20200;-57
2023/09/22 03:27:09;;;;;;;1.25;1.15;;;;;;;14.47;100.00;95554.56;5042932;28;20234;-58
2023/09/22 03:29:35;;;;;;;0.60;0.60;;;;;;;14.51;100.00;95549.69;5043275;28;20227;-58
2023/09/22 03:32:01;;;;;;;1.10;1.00;;;;;;;14.51;100.00;95537.19;5042798;28;20211;-58
2023/09/22 03:34:28;;;;;;;1.60;1.13;;;;;;;14.48;100.00;95524.28;5042587;28;20199;-58
2023/09/22 03:36:54;;;;;;;1.08;1.08;;;;;;;14.49;100.00;95522.47;5042952;28;20215;-58
2023/09/22 03:39:26;;;;;;;1.17;1.07;;;;;;;14.48;100.00;95532.28;5043427;28;20323;-57
2023/09/22 03:41:54;;;;;;;1.27;1.00;;;;;;;14.45;100.00;95540.66;5042785;28;20204;-57
2023/09/22 03:44:20;;;;;;;1.10;0.98;;;;;;;14.44;100.00;95529.19;5043287;28;20207;-58
2023/09/22 03:46:48;;;;;;;1.43;0.80;;;;;;;14.42;100.00;95519.72;5042006;28;20212;-57
2023/09/22 03:49:14;;;;;;;0.70;0.70;;;;;;;14.39;100.00;95522.78;5042441;28;20203;-58
2023/09/22 03:51:43;;;;;;;1.38;1.13;;;;;;;14.43;100.00;95516.06;5042132;28;20218;-56
2023/09/22 03:54:10;;;;;;;0.98;0.80;;;;;;;14.35;100.00;95538.28;5043268;28;20270;-58
2023/09/22 03:56:38;;;;;;;2.57;0.90;;;;;;;14.40;100.00;95541.22;5041844;28;20220;-58
2023/09/22 03:59:05;;;;;;;1.10;1.00;;;;;;;14.40;100.00;95524.44;5042883;28;20289;-57
2023/09/22 04:01:32;;;;;;;1.13;1.02;;;;;;;14.42;100.00;95536.50;5042389;28;20238;-58
2023/09/22 04:03:58;;;;;;;1.35;0.98;;;;;;;14.46;100.00;95547.59;5042710;28;20261;-57
2023/09/22 04:06:25;;;;;;;2.33;1.00;;;;;;;14.47;100.00;95537.78;5042256;28;20225;-57
2023/09/22 04:08:52;;;;;;;2.08;1.00;;;;;;;14.51;100.00;95545.19;5042888;28;20330;-57
2023/09/22 04:11:18;;;;;;;1.30;1.20;;;;;;;14.49;100.00;95544.53;5043537;28;20249;-58
2023/09/22 04:13:46;;;;;;;1.30;1.20;;;;;;;14.47;100.00;95529.78;5043006;28;20211;-58
2023/09/22 04:16:13;;;;;;;2.70;1.40;;;;;;;14.44;100.00;95539.00;5043361;28;20228;-58
2023/09/22 04:18:39;;;;;;;1.70;1.27;;;;;;;14.39;100.00;95547.53;5042687;28;20222;-57
2023/09/22 04:21:07;;;;;;;3.72;3.38;;;;;;;14.41;100.00;95544.69;5043839;28;20207;-56
2023/09/22 04:23:34;;;;;;;2.25;1.42;;;;;;;14.36;100.00;95531.16;5043664;28;20303;-58
2023/09/22 04:26:02;;;;;;;1.50;1.08;;;;;;;14.37;100.00;95544.25;5042573;28;20283;-58
2023/09/22 04:28:29;;;;;;;3.20;1.20;;;;;;;14.34;100.00;95552.63;5041542;28;20273;-57
2023/09/22 04:31:00;;;;;;;3.08;1.00;;;;;;;14.34;100.00;95555.28;5042393;28;20200;-57
2023/09/22 04:33:27;;;;;;;1.33;1.23;;;;;;;14.38;100.00;95556.53;5042227;28;20274;-56
2023/09/22 04:35:53;;;;;;;1.00;0.90;;;;;;;14.39;100.00;95544.88;5043240;28;20656;-57
2023/09/22 04:38:20;;;;;;;1.10;0.82;;;;;;;14.40;100.00;95546.53;5045242;28;20216;-57
2023/09/22 04:40:47;;;;;;;1.40;1.30;;;;;;;14.37;100.00;95543.44;5043532;28;20226;-58
2023/09/22 04:43:13;;;;;;;1.10;1.00;;;;;;;14.41;100.00;95544.69;5043960;28;20208;-58
2023/09/22 04:45:41;;;;;;;1.85;1.38;;;;;;;14.45;100.00;95559.25;5043122;28;20199;-58
2023/09/22 04:48:10;;;;;;;1.58;1.40;;;;;;;14.46;100.00;95558.22;5044368;28;20203;-58
2023/09/22 04:50:37;;;;;;;3.40;0.95;;;;;;;14.49;100.00;95567.69;5043527;28;20203;-58
2023/09/22 04:53:05;;;;;;;2.00;1.10;;;;;;;14.52;100.00;95573.44;5044209;28;20210;-58
2023/09/22 04:55:35;;;;;;;0.73;0.73;;;;;;;14.53;100.00;95585.69;5043405;28;20510;-59
2023/09/22 04:58:03;;;;;;;0.87;0.87;;;;;;;14.44;100.00;95587.69;5044982;28;20258;-58
2023/09/22 05:00:33;;;;;;;0.73;0.73;;;;;;;14.41;100.00;95588.09;5044432;28;20227;-58
2023/09/22 05:02:59;;;;;;;0.90;0.90;;;;;;;14.40;100.00;95585.59;5046240;28;20227;-57
2023/09/22 05:05:28;;;;;;;0.67;0.67;;;;;;;14.41;100.00;95601.38;5046411;28;20236;-59
2023/09/22 05:07:55;;;;;;;1.05;0.70;;;;;;;14.41;100.00;95600.56;5045871;28;20579;-58
2023/09/22 05:10:21;;;;;;;2.63;0.90;;;;;;;14.46;100.00;95595.47;5046054;28;20214;-59
2023/09/22 05:12:50;;;;;;;2.40;0.77;;;;;;;14.44;100.00;95590.34;5047681;28;20232;-58
2023/09/22 05:15:16;;;;;;;1.48;0.90;;;;;;;14.44;100.00;95598.34;5046839;28;20200;-59
2023/09/22 05:17:42;;;;;;;1.80;0.83;;;;;;;14.46;100.00;95606.09;5046849;28;20210;-58
2023/09/22 05:20:14;;;;;;;0.80;0.80;;;;;;;14.45;100.00;95591.97;5046835;28;20224;-57
2023/09/22 05:22:43;;;;;;;6.05;0.90;;;;;;;14.45;100.00;95584.00;5048512;28;20203;-58
2023/09/22 05:25:10;;;;;;;1.10;1.00;;;;;;;14.42;100.00;95591.53;5047846;28;20321;-59
2023/09/22 05:27:36;;;;;;;3.87;0.90;;;;;;;14.40;100.00;95593.59;5046034;28;20230;-58
2023/09/22 05:30:06;;;;;;;1.07;0.80;;;;;;;14.40;100.00;95599.72;5046732;28;20206;-58
2023/09/22 05:32:32;;;;;;;1.00;0.90;;;;;;;14.39;100.00;95610.53;5048506;28;20212;-58
2023/09/22 05:34:59;;;;;;;1.43;0.80;;;;;;;14.40;100.00;95617.53;5046197;28;20210;-58
2023/09/22 05:37:26;;;;;;;0.70;0.70;;;;;;;14.40;100.00;95618.34;5046886;28;20207;-57
2023/09/22 05:39:54;;;;;;;1.03;1.00;;;;;;;14.38;100.00;95624.88;5046650;28;21309;-56
2023/09/22 05:42:20;;;;;;;1.80;1.17;;;;;;;14.40;100.00;95630.81;5047024;28;20210;-59
2023/09/22 05:44:47;;;;;;;1.67;0.90;;;;;;;14.45;100.00;95636.41;5047440;28;20219;-58
2023/09/22 05:47:13;;;;;;;3.10;1.13;;;;;;;14.39;100.00;95637.16;5046972;28;20636;-58
2023/09/22 05:49:40;;;;;;;2.63;1.10;;;;;;;14.37;100.00;95650.66;5046941;28;20200;-58
2023/09/22 05:52:06;;;;;;;1.00;1.00;;;;;;;14.37;100.00;95644.50;5044505;28;20226;-57
2023/09/22 05:54:33;;;;;;;2.90;1.40;;;;;;;14.35;100.00;95651.84;5045812;28;20223;-56
2023/09/22 05:57:01;;;;;;;0.90;0.90;;;;;;;14.36;100.00;95646.34;5045641;28;20222;-58
2023/09/22 05:59:27;;;;;;;1.88;0.90;;;;;;;14.42;100.00;95623.47;5046340;28;20231;-53
2023/09/22 06:01:55;;;;;;;0.80;0.80;;;;;;;14.40;100.00;95628.16;5044699;28;20226;-54
2023/09/22 06:04:22;;;;;;;0.93;0.93;;;;;;;14.45;100.00;95636.41;5046617;28;20207;-55
2023/09/22 06:06:48;;;;;;;0.70;0.70;;;;;;;14.48;100.00;95633.34;5045073;28;20208;-54
2023/09/22 06:09:15;;;;;;;0.63;0.63;;;;;;;14.53;100.00;95633.59;5045882;28;20227;-53
2023/09/22 06:11:42;;;;;;;2.63;0.80;;;;;;;14.54;100.00;95645.88;5044421;28;20219;-53
2023/09/22 06:14:09;;;;;;;1.25;0.60;;;;;;;14.59;100.00;95648.81;5051653;28;20225;-54
2023/09/22 06:16:36;;;;;;;1.27;0.90;;;;;;;14.61;100.00;95646.75;5047596;28;20203;-55
2023/09/22 06:19:03;;;;;;;1.98;0.77;;;;;;;14.61;100.00;95644.09;5046562;28;20643;-55
2023/09/22 06:21:31;;;;;;;1.27;1.10;;;;;;;14.60;100.00;95642.44;5046498;28;20293;-55
2023/09/22 06:23:59;;;;;;;0.63;0.63;;;;;;;14.56;100.00;95627.88;5047581;28;20231;-55
2023/09/22 06:26:25;;;;;;;0.50;0.50;;;;;;;14.57;100.00;95631.38;5045391;28;20219;-54
2023/09/22 06:28:52;;;;;;;1.00;0.90;;;;;;;14.69;100.00;95648.47;5046990;28;20203;-57
2023/09/22 06:31:20;;;;;;;1.73;0.80;;;;;;;14.69;100.00;95643.97;5049679;28;20203;-56
2023/09/22 06:33:48;;;;;;;1.13;1.00;;;;;;;14.67;100.00;95640.66;5048393;28;20207;-55
2023/09/22 06:36:14;;;;;;;0.60;0.60;;;;;;;14.61;100.00;95644.09;5044815;28;20711;-56
2023/09/22 06:38:41;;;;;;;0.88;0.85;;;;;;;14.58;100.00;95636.50;5044819;28;20200;-57
2023/09/22 06:41:08;;;;;;;1.30;0.88;;;;;;;14.61;100.00;95646.75;5045129;28;20219;-57
2023/09/22 06:43:36;;;;;;;0.88;0.70;;;;;;;14.57;100.00;95650.81;5044553;28;20207;-54
2023/09/22 06:46:03;;;;;;;0.50;0.50;;;;;;;14.54;100.00;95661.84;5046897;28;20207;-56
2023/09/22 06:48:31;;;;;;;0.70;0.70;;;;;;;14.58;100.00;95652.47;5053186;28;20196;-56
2023/09/22 06:50:58;;;;;;;2.70;0.90;;;;;;;14.54;100.00;95640.56;5047282;28;20195;-56
2023/09/22 06:53:26;;;;;;;1.20;0.65;;;;;;;14.55;100.00;95636.91;5056290;28;20212;-57
2023/09/22 06:56:02;;;;;;;0.60;0.60;;;;;;;14.59;100.00;95648.81;5054733;28;20219;-56
2023/09/22 06:58:29;;;;;;;1.98;0.95;;;;;;;14.57;100.00;95650.81;5055674;28;20214;-57
2023/09/22 07:00:56;;;;;;;0.47;0.47;;;;;;;14.52;100.00;95641.78;5047089;28;20238;-56
2023/09/22 07:03:22;;;;;;;0.68;0.68;;;;;;;14.52;100.00;95636.47;5046701;28;20212;-56
2023/09/22 07:05:50;;;;;;;1.42;0.75;;;;;;;14.49;100.00;95642.97;5047998;28;20218;-57
2023/09/22 07:08:17;;;;;;;1.00;0.80;;;;;;;14.49;100.00;95642.97;5047302;28;20302;-57
2023/09/22 07:10:43;;;;;;;1.92;0.73;;;;;;;14.44;100.00;95640.91;5048940;28;20200;-56
2023/09/22 07:13:10;;;;;;;2.63;0.88;;;;;;;14.46;100.00;95648.66;5047789;28;20212;-56
2023/09/22 07:15:38;;;;;;;0.80;0.57;;;;;;;14.45;100.00;95650.50;5046497;28;20219;-56
2023/09/22 07:18:05;;;;;;;1.00;0.60;;;;;;;14.48;100.00;95643.16;5048377;28;21233;-57
2023/09/22 07:20:32;;;;;;;1.30;0.90;;;;;;;14.49;100.00;95631.53;5048900;28;20223;-57
2023/09/22 07:22:59;;;;;;;1.00;0.90;;;;;;;14.48;100.00;95630.69;5048967;28;20631;-56
2023/09/22 07:25:26;;;;;;;0.70;0.70;;;;;;;14.48;100.00;95636.00;5046562;28;20559;-57
2023/09/22 07:27:53;;;;;;;0.82;0.60;;;;;;;14.47;100.00;95631.69;5044260;28;20257;-57
2023/09/22 07:30:20;;;;;;;0.60;0.60;;;;;;;14.46;100.00;95638.03;5043752;28;20226;-57
2023/09/22 07:32:47;;;;;;;0.70;0.70;;;;;;;14.44;100.00;95651.53;5044459;28;20211;-56
2023/09/22 07:35:15;;;;;;;1.25;0.73;;;;;;;14.42;100.00;95652.72;5045121;28;20196;-57
2023/09/22 07:37:41;;;;;;;1.02;0.80;;;;;;;14.48;100.00;95645.81;5048749;28;20200;-57
2023/09/22 07:40:10;;;;;;;1.67;0.93;;;;;;;14.41;100.00;95643.13;5047574;28;20684;-57
2023/09/22 07:42:38;;;;;;;1.30;1.00;;;;;;;14.38;100.00;95640.84;5044392;28;20211;-57
2023/09/22 07:45:06;;;;;;;1.13;1.08;;;;;;;14.45;100.00;95636.41;5043189;28;20325;-57
2023/09/22 07:47:34;;;;;;;0.63;0.63;;;;;;;14.52;100.00;95652.41;5044802;28;20203;-57
2023/09/22 07:50:01;;;;;;;1.10;0.68;;;;;;;14.55;100.00;95658.19;5043430;28;20336;-56
2023/09/22 07:52:28;;;;;;;3.23;0.80;;;;;;;14.65;100.00;95648.03;5044011;28;20213;-56
2023/09/22 07:54:55;;;;;;;2.10;0.90;;;;;;;14.73;100.00;95661.19;5043166;28;20203;-57
2023/09/22 07:57:23;;;;;;;0.80;0.80;;;;;;;14.72;100.00;95653.41;5045499;28;20274;-57
2023/09/22 07:59:50;;;;;;;1.00;0.90;;;;;;;14.85;100.00;95664.13;5043498;28;20210;-57
2023/09/22 08:02:17;;;;;;;0.70;0.60;;;;;;;14.84;100.00;95658.00;5043987;28;20288;-56
2023/09/22 08:04:44;;;;;;;2.25;1.80;;;;;;;14.90;100.00;95665.22;5043245;28;20549;-56
2023/09/22 08:07:10;;;;;;;1.90;1.15;;;;;;;14.89;100.00;95676.06;5043792;28;20208;-57
2023/09/22 08:09:37;;;;;;;2.38;0.88;;;;;;;14.98;100.00;95680.22;5045843;28;20605;-57
2023/09/22 08:12:05;;;;;;;4.20;1.00;;;;;;;15.02;100.00;95691.31;5045811;28;20222;-56
2023/09/22 08:14:34;;;;;;;2.20;1.70;;;;;;;15.06;100.00;95685.38;5045002;28;20202;-57
2023/09/22 08:17:04;;;;;;;1.83;1.50;;;;;;;15.07;100.00;95691.53;5045930;28;20222;-58
2023/09/22 08:19:31;;;;;;;1.30;1.20;;;;;;;15.07;100.00;95687.03;5046814;28;20604;-57
2023/09/22 08:21:58;;;;;;;2.42;1.70;;;;;;;15.08;100.00;95679.88;5044937;28;20238;-56
2023/09/22 08:24:25;;;;;;;2.17;1.25;;;;;;;15.11;100.00;95679.50;5044058;28;20245;-60
2023/09/22 08:26:51;;;;;;;1.83;1.60;;;;;;;15.11;100.00;95695.47;5045708;28;20231;-57
2023/09/22 08:29:18;;;;;;;1.88;1.45;;;;;;;15.16;100.00;95687.72;5043837;28;20218;-56
2023/09/22 08:31:46;;;;;;;1.52;1.40;;;;;;;15.18;100.00;95686.50;5046754;28;20203;-57
2023/09/22 08:34:13;;;;;;;1.95;1.13;;;;;;;15.21;100.00;95688.78;5049723;28;20207;-56
2023/09/22 08:36:39;;;;;;;1.25;1.10;;;;;;;15.27;100.00;95689.81;5048416;28;20200;-57
2023/09/22 08:39:08;;;;;;;1.33;1.23;;;;;;;15.33;100.00;95691.75;5049014;28;20203;-56
2023/09/22 08:41:37;;;;;;;1.00;0.98;;;;;;;15.34;100.00;95698.69;5043607;28;20281;-56
2023/09/22 08:44:04;;;;;;;0.85;0.85;;;;;;;15.35;100.00;95698.50;5042196;28;20633;-56
2023/09/22 08:46:31;;;;;;;1.50;0.90;;;;;;;15.34;100.00;95696.84;5042474;28;20212;-56
2023/09/22 08:48:58;;;;;;;1.42;1.17;;;;;;;15.41;100.00;95696.88;5041974;28;20203;-57
2023/09/22 08:51:25;;;;;;;1.58;1.05;;;;;;;15.41;100.00;95692.38;5041677;28;20195;-58
2023/09/22 08:53:53;;;;;;;1.08;1.00;;;;;;;15.38;100.00;95691.94;5042647;28;20659;-56
2023/09/22 08:56:21;;;;;;;2.17;1.25;;;;;;;15.44;100.00;95701.84;5041735;28;20200;-57
2023/09/22 08:58:47;;;;;;;0.88;0.88;;;;;;;15.42;100.00;95706.53;5042469;28;20199;-55
2023/09/22 09:01:15;;;;;;;0.90;0.80;;;;;;;15.50;100.00;95701.09;5042291;28;20567;-56
2023/09/22 09:03:42;;;;;;;1.00;0.90;;;;;;;15.49;100.00;95696.78;5041644;28;20543;-56
2023/09/22 09:06:10;;;;;;;0.80;0.80;;;;;;;15.57;100.00;95701.94;5041779;28;20199;-57
2023/09/22 09:08:37;;;;;;;0.85;0.75;;;;;;;15.52;100.00;95699.03;5041882;28;20268;-57
2023/09/22 09:11:08;;;;;;;0.90;0.90;;;;;;;15.65;100.00;95698.31;5041783;28;20215;-57
2023/09/22 09:13:35;;;;;;;1.50;1.20;;;;;;;15.61;100.00;95703.22;5042018;28;20221;-56
2023/09/22 09:16:06;;;;;;;2.42;1.38;;;;;;;15.66;100.00;95711.41;5042304;28;20502;-55
2023/09/22 09:18:33;;;;;;;0.68;0.68;;;;;;;15.68;100.00;95714.72;5042587;28;20207;-58
2023/09/22 09:21:09;;;;;;;0.88;0.60;;;;;;;15.66;100.00;95719.41;5041615;28;20555;-58
2023/09/22 09:23:42;;;;;;;0.98;0.70;;;;;;;15.71;100.00;95714.31;5043031;28;20199;-57
2023/09/22 09:26:08;;;;;;;0.60;0.60;;;;;;;15.70;100.00;95718.00;5042091;28;20289;-57
2023/09/22 09:28:40;;;;;;;0.60;0.60;;;;;;;15.67;100.00;95712.25;5041939;28;20239;-56
2023/09/22 09:31:07;;;;;;;1.02;0.73;;;;;;;15.65;100.00;95709.78;5042239;28;20202;-56
2023/09/22 09:33:37;;;;;;;1.17;0.60;;;;;;;15.63;100.00;95706.47;5041827;28;20211;-58
2023/09/22 09:36:15;;;;;;;1.05;0.77;;;;;;;15.64;100.00;95713.47;5041959;28;20223;-58
2023/09/22 09:38:43;;;;;;;0.75;0.73;;;;;;;15.68;100.00;95712.06;5042147;28;20293;-57
2023/09/22 09:41:11;;;;;;;0.70;0.70;;;;;;;15.74;100.00;95708.59;5042594;28;20224;-58
2023/09/22 09:43:38;;;;;;;0.65;0.65;;;;;;;15.80;100.00;95707.78;5042020;28;20215;-55
2023/09/22 09:46:08;;;;;;;1.08;0.80;;;;;;;15.81;100.00;95705.97;5043542;28;20214;-57
2023/09/22 09:48:38;;;;;;;1.27;0.85;;;;;;;15.91;100.00;95709.06;5044988;28;20224;-62
2023/09/22 09:51:06;;;;;;;1.58;0.65;;;;;;;15.99;100.00;95716.09;5045832;28;20211;-53
2023/09/22 09:53:39;;;;;;;1.90;1.20;;;;;;;16.07;100.00;95707.91;5046678;28;20203;-54
2023/09/22 09:56:07;;;;;;;2.60;0.82;;;;;;;16.12;100.00;95711.63;5044481;28;20286;-54
2023/09/22 09:58:35;;;;;;;1.15;1.05;;;;;;;16.21;100.00;95709.63;5045729;28;20215;-55
2023/09/22 10:01:05;;;;;;;1.25;0.90;;;;;;;16.23;100.00;95710.22;5045174;28;20239;-54
2023/09/22 10:03:31;;;;;;;1.55;1.23;;;;;;;16.29;100.00;95709.44;5044902;28;20213;-55
2023/09/22 10:05:59;;;;;;;1.58;0.70;;;;;;;16.36;100.00;95713.78;5044662;28;20214;-55
2023/09/22 10:08:27;;;;;;;1.33;0.98;;;;;;;16.39;100.00;95712.53;5045389;28;20218;-55
2023/09/22 10:10:56;;;;;;;0.98;0.73;;;;;;;16.42;100.00;95717.47;5044979;28;20195;-55
2023/09/22 10:13:23;;;;;;;0.82;0.60;;;;;;;16.31;100.00;95720.72;5045702;28;20200;-54
2023/09/22 10:15:58;;;;;;;0.60;0.60;;;;;;;16.29;100.00;95722.78;5044512;28;20219;-55
2023/09/22 10:18:44;;;;;;;1.02;0.80;;;;;;;16.34;100.00;95714.97;5044682;28;20202;-54
2023/09/22 10:21:39;;;;;;;0.85;0.60;;;;;;;16.37;100.00;95714.56;5044612;28;20273;-55
2023/09/22 10:24:23;;;;;;;1.02;0.77;;;;;;;16.42;100.00;95714.81;5046286;28;20529;-54
2023/09/22 10:27:14;;;;;;;1.00;1.00;;;;;;;16.43;100.00;95713.78;5044245;28;20231;-55
2023/09/22 10:29:53;;;;;;;0.85;0.55;;;;;;;16.40;100.00;95698.97;5040326;28;20203;-55
2023/09/22 10:32:29;;;;;;;0.70;0.50;;;;;;;16.40;100.00;95696.31;5044232;28;20647;-56
2023/09/22 10:34:57;;;;;;;0.45;0.45;;;;;;;16.36;100.00;95691.59;5044662;28;20227;-58
2023/09/22 10:37:26;;;;;;;1.13;0.70;;;;;;;16.43;100.00;95682.59;5044403;28;20195;-54
2023/09/22 10:39:54;;;;;;;0.68;0.68;;;;;;;16.49;100.00;95688.13;5044101;28;20222;-56
2023/09/22 10:42:21;;;;;;;0.40;0.40;;;;;;;16.39;100.00;95692.03;5043766;28;20246;-55
2023/09/22 10:45:01;;;;;;;1.30;0.68;;;;;;;16.26;100.00;95689.31;5044392;28;20204;-54
2023/09/22 10:47:37;;;;;;;2.30;0.75;;;;;;;16.20;100.00;95687.44;5045538;28;20214;-56
2023/09/22 10:50:13;;;;;;;1.23;0.60;;;;;;;16.29;100.00;95685.44;5044807;28;20237;-55
2023/09/22 10:52:41;;;;;;;0.85;0.80;;;;;;;16.33;100.00;95687.47;5044967;28;20204;-55
2023/09/22 10:55:09;;;;;;;0.43;0.43;;;;;;;16.35;100.00;95692.63;5045552;28;20651;-57
2023/09/22 10:57:36;;;;;;;1.75;0.40;;;;;;;16.28;100.00;95697.94;5045391;28;20286;-56
2023/09/22 11:00:10;;;;;;;1.40;0.40;;;;;;;16.44;100.00;95689.56;5045520;28;20200;-56
2023/09/22 11:02:37;;;;;;;0.57;0.45;;;;;;;16.51;100.00;95691.44;5045009;28;20792;-55
2023/09/22 11:05:06;;;;;;;0.80;0.60;;;;;;;16.46;100.00;95689.38;5043482;28;20196;-54
2023/09/22 11:07:33;;;;;;;0.40;0.30;;;;;;;16.36;100.00;95691.59;5044122;28;20230;-57
2023/09/22 11:10:00;;;;;;;0.35;0.35;;;;;;;16.41;100.00;95692.63;5044356;28;21276;-56
2023/09/22 11:12:27;;;;;;;0.43;0.43;;;;;;;16.36;100.00;95697.78;5044687;28;20212;-56
2023/09/22 11:14:55;;;;;;;1.15;0.40;;;;;;;16.41;100.00;95694.47;5043579;28;20208;-55
2023/09/22 11:17:37;;;;;;;0.70;0.60;;;;;;;16.43;100.00;95692.44;5043135;28;20220;-55
2023/09/22 11:20:12;;;;;;;1.17;0.38;;;;;;;16.49;100.00;95694.28;5042801;28;20203;-56
2023/09/22 11:22:39;;;;;;;0.93;0.20;;;;;;;16.57;100.00;95699.47;5043767;28;20219;-56
2023/09/22 11:25:07;;;;;;;0.30;0.30;;;;;;;16.59;100.00;95697.41;5045333;28;20235;-55
2023/09/22 11:27:41;;;;;;;0.32;0.32;;;;;;;16.75;100.00;95710.38;5043578;28;20223;-55